Home > Products > Valid Products > TAF

000
FTUS43 KLBF 090520
TAFLBF
TAF
KLBF 090520Z 0906/1006 31007KT P6SM OVC050
     FM091300 33006KT P6SM SCT025 OVC050
     FM100500 27006KT P6SM SCT100=



000
FTUS43 KLBF 090520
TAFVTN
TAF
KVTN 090520Z 0906/1006 33010KT P6SM OVC070
     FM091300 35008KT P6SM OVC025
      TEMPO 0913/0917 -SN SCT020 OVC035
     FM100500 33005KT P6SM SCT050=



000
FTUS43 KLBF 082320
TAFLBF
TAF
KLBF 082320Z 0900/0924 32012KT P6SM SCT050
     FM090500 31009KT P6SM BKN050
     FM091300 33006KT P6SM SCT025 OVC050=



000
FTUS43 KLBF 082320
TAFVTN
TAF
KVTN 082320Z 0900/0924 32014KT P6SM SCT070
     FM090400 32009KT P6SM OVC070
     FM091300 33008KT P6SM OVC025
      TEMPO 0913/0917 -SN BKN020 OVC035=



000
FTUS43 KLBF 081727
TAFVTN
TAF
KVTN 081727Z 0818/0918 31019G27KT P6SM SCT080 BKN200
     FM090100 32012KT P6SM OVC070
     FM090700 30006KT P6SM BKN040 OVC100
     FM091300 32011KT P6SM SCT022 BKN040
      TEMPO 0913/0917 -SN BKN020 OVC040=



000
FTUS43 KLBF 081727
TAFLBF
TAF
KLBF 081727Z 0818/0918 32025G35KT P6SM SCT250
     FM082200 33015G24KT P6SM BKN080
     FM090200 31012KT P6SM BKN050
     FM091300 30008KT P6SM BKN022 OVC040=



000
FTUS43 KLBF 081120
TAFVTN
TAF
KVTN 081120Z 0812/0912 31022G30KT P6SM BKN250
     FM090000 32008KT P6SM OVC070=



000
FTUS43 KLBF 081120
TAFLBF
TAF
KLBF 081120Z 0812/0912 29015KT P6SM SCT250
     FM081500 30018G25KT P6SM BKN250
     FM081700 32022G28KT P6SM SCT250
     FM090000 33012KT P6SM BKN120=



000
FTUS43 KLBF 081120
TAFVTN
TAF
KVTN 081120Z 0812/0912 31022G30KT P6SM BKN250
     FM090000 32008KT P6SM OVC070=



000
FTUS43 KLBF 081120
TAFLBF
TAF
KLBF 081120Z 0812/0912 29015KT P6SM SCT250
     FM081500 30018G25KT P6SM BKN250
     FM081700 32022G28KT P6SM SCT250
     FM090000 33012KT P6SM BKN120=



000
FTUS43 KLBF 080520
TAFLBF
TAF
KLBF 080520Z 0806/0906 31013G22KT P6SM SCT250
     FM081700 32020G28KT P6SM SCT250
     FM090000 31011KT P6SM SCT250=



000
FTUS43 KLBF 080520
TAFVTN
TAF
KVTN 080520Z 0806/0906 31022G30KT P6SM SCT250
     FM090000 32011KT P6SM SCT250=



000
FTUS43 KLBF 072320
TAFLBF
TAF
KLBF 072320Z 0800/0824 31017G24KT P6SM SCT250=



000
FTUS43 KLBF 072320
TAFVTN
TAF
KVTN 072320Z 0800/0824 31025G40KT P6SM FEW070 SCT250
     FM080200 31022G32KT P6SM SCT250=



000
FTUS43 KLBF 071720
TAFVTN
TAF
KVTN 071720Z 0718/0818 30034G43KT P6SM SCT070 BKN090
     FM080200 31023G30KT P6SM SCT070
     FM080900 32018G27KT P6SM SCT025=



000
FTUS43 KLBF 071720
TAFLBF
TAF
KLBF 071720Z 0718/0818 30028G39KT P6SM SCT100 BKN150
     FM080100 31018G26KT P6SM SCT250=



000
FTUS43 KLBF 071131
TAFLBF
TAF
KLBF 071131Z 0712/0812 31015KT P6SM OVC080
     FM071700 30016G23KT P6SM SCT080 SCT250
     FM071800 30028G39KT P6SM FEW250
     FM080100 31018G26KT P6SM SKC=



000
FTUS43 KLBF 071131
TAFVTN
TAF
KVTN 071131Z 0712/0812 29013G21KT P6SM OVC120
     FM071500 30027G35KT P6SM SCT080
     FM071800 30034G43KT P6SM SCT050 BKN070
     FM080200 31023G30KT P6SM SCT050=



000
FTUS43 KLBF 070520
TAFLBF
TAF
KLBF 070520Z 0706/0806 30010KT P6SM FEW100 SCT250
     FM071500 30020G30KT P6SM SCT250
     FM071800 30028G39KT P6SM FEW250
     FM080100 31024G32KT P6SM FEW250=



000
FTUS43 KLBF 070520
TAFVTN
TAF
KVTN 070520Z 0706/0806 29015G21KT P6SM SCT250
     FM071500 30027G35KT P6SM SCT080
     FM071800 30034G43KT P6SM VCSH SCT050 BKN070
     FM080200 31027G37KT P6SM SCT050=



000
FTUS43 KLBF 062339
TAFLBF
TAF
KLBF 062339Z 0700/0724 29008KT P6SM BKN250
     FM071500 30020G30KT P6SM SCT120
     FM071800 30028G39KT P6SM FEW250=



000
FTUS43 KLBF 062339
TAFVTN
TAF
KVTN 062339Z 0700/0724 28013KT P6SM BKN250
     FM071000 29015G21KT P6SM SCT250
     FM071500 30027G35KT P6SM SCT080
     FM071800 30034G43KT P6SM BKN070=



000
FTUS43 KLBF 062339
TAFLBF
TAF
KLBF 062339Z 0700/0724 29008KT P6SM BKN250
     FM071500 30020G30KT P6SM SCT120
     FM071800 30028G39KT P6SM FEW250=



000
FTUS43 KLBF 062339
TAFVTN
TAF
KVTN 062339Z 0700/0724 28013KT P6SM BKN250
     FM071000 29015G21KT P6SM SCT250
     FM071500 30027G35KT P6SM SCT080
     FM071800 30034G43KT P6SM BKN070=



000
FTUS43 KLBF 061727
TAFLBF
TAF
KLBF 061727Z 0618/0718 27009KT P6SM SCT250
     FM062000 28010G18KT P6SM SCT120
     FM070000 29008KT P6SM BKN120
     FM071500 31015KT P6SM BKN120=



000
FTUS43 KLBF 061727
TAFVTN
TAF
KVTN 061727Z 0618/0718 26012G18KT P6SM SCT250
     FM070000 28009KT P6SM OVC100
     FM071200 32015G21KT P6SM SCT120
     FM071500 31020G30KT P6SM SCT120=



000
FTUS43 KLBF 061727
TAFLBF
TAF
KLBF 061727Z 0618/0718 27009KT P6SM SCT250
     FM062000 28010G18KT P6SM SCT120
     FM070000 29008KT P6SM BKN120
     FM071500 31015KT P6SM BKN120=



000
FTUS43 KLBF 061727
TAFVTN
TAF
KVTN 061727Z 0618/0718 26012G18KT P6SM SCT250
     FM070000 28009KT P6SM OVC100
     FM071200 32015G21KT P6SM SCT120
     FM071500 31020G30KT P6SM SCT120=



000
FTUS43 KLBF 061120
TAFLBF
TAF
KLBF 061120Z 0612/0712 29005KT P6SM SCT250
     FM061600 27007KT P6SM SCT250
     FM062000 27010G18KT P6SM BKN250
     FM070000 27008KT P6SM OVC250=



000
FTUS43 KLBF 061120
TAFVTN
TAF
KVTN 061120Z 0612/0712 25008KT P6SM SCT250
     FM061800 26012G18KT P6SM BKN250
     FM070000 27006KT P6SM OVC100=



000
FTUS43 KLBF 061120
TAFLBF
TAF
KLBF 061120Z 0612/0712 29005KT P6SM SCT250
     FM061600 27007KT P6SM SCT250
     FM062000 27010G18KT P6SM BKN250
     FM070000 27008KT P6SM OVC250=



000
FTUS43 KLBF 061120
TAFVTN
TAF
KVTN 061120Z 0612/0712 25008KT P6SM SCT250
     FM061800 26012G18KT P6SM BKN250
     FM070000 27006KT P6SM OVC100=



000
FTUS43 KLBF 060604 AAA
TAFLBF
TAF AMD
KLBF 060604Z 0606/0706 28007KT P6SM FEW250
      TEMPO 0606/0610 3SM BR
     FM061700 26012KT P6SM SCT250=



000
FTUS43 KLBF 060604 AAA
TAFLBF
TAF AMD
KLBF 060604Z 0606/0706 28007KT P6SM FEW250
      TEMPO 0606/0610 3SM BR
     FM061700 26012KT P6SM SCT250=



    US Dept of Commerce
    National Oceanic and Atmospheric Administration
    National Weather Service
    1325 East West Highway
    Silver Spring, MD 20910
    Page Author: NWS Internet Services Team
Disclaimer
Information Quality
Credits
Glossary
Privacy Policy
Freedom of Information Act (FOIA)
About Us
Career Opportunities